Back to Top

Language: 

My Weather Underground Personal Weather Station Historical Data with Graphs...

Delerius Weather Station Historical Data
Daily Summary for January 24, 2017 Units:  English    Metric   Both
« Previous Day
Next Day »
Daily Weekly Monthly Yearly Custom
  High: Low: Average:
Temperature: 48.6 °F 26.9 °F 37.5 °F
Dew Point: 43.4 °F 26.2 °F 35.7 °F
Humidity: 98 % 81 % 93 %
Wind Speed: 6.0 mph 0.0 mph 0.9 mph
Wind Gust: -999.0 mph - -
Wind:- - SSW
Pressure: 30.29 in 30.25 in -
Precipitation: 0.01 in    
Historical Graphs
 
 
Tabular Data for January 24, 2017
Time Temperature Dew Point Pressure Wind Wind Speed Wind Gust Humidity Rainfall Rate (Hourly) solar Conditions
00:01 30.7 °F 29.7 °F 30.27 in Calm   -999.0 mph 96 % 0.00 in 0 W/m2
00:06 30.7 °F 29.7 °F 30.27 in Calm   -999.0 mph 96 % 0.00 in 0 W/m2
00:11 30.7 °F 29.7 °F 30.27 in Calm   -999.0 mph 96 % 0.00 in 0 W/m2
00:16 30.7 °F 29.7 °F 30.27 in Calm   -999.0 mph 96 % 0.00 in 0 W/m2
00:21 30.7 °F 29.7 °F 30.27 in Calm   -999.0 mph 96 % 0.00 in 0 W/m2
00:26 30.1 °F 29.1 °F 30.27 in Calm   -999.0 mph 96 % 0.00 in 0 W/m2
00:31 30.1 °F 29.1 °F 30.27 in Calm   -999.0 mph 96 % 0.00 in 0 W/m2
00:36 30.1 °F 29.1 °F 30.27 in Calm   -999.0 mph 96 % 0.00 in 0 W/m2
00:41 29.7 °F 28.7 °F 30.27 in Calm   -999.0 mph 96 % 0.00 in 0 W/m2
00:46 29.7 °F 28.7 °F 30.27 in Calm   -999.0 mph 96 % 0.00 in 0 W/m2
00:51 29.7 °F 28.7 °F 30.27 in Calm   -999.0 mph 96 % 0.00 in 0 W/m2
00:56 29.4 °F 28.4 °F 30.27 in Calm   -999.0 mph 96 % 0.00 in 0 W/m2
01:01 29.4 °F 28.4 °F 30.27 in Calm   -999.0 mph 96 % 0.00 in 0 W/m2
01:06 29.4 °F 28.4 °F 30.27 in Calm   -999.0 mph 96 % 0.00 in 0 W/m2
01:11 29.1 °F 28.1 °F 30.27 in Calm   -999.0 mph 96 % 0.00 in 0 W/m2
01:16 29.1 °F 28.1 °F 30.27 in Calm   -999.0 mph 96 % 0.00 in 0 W/m2
01:26 28.9 °F 27.9 °F 30.26 in Calm   -999.0 mph 96 % 0.00 in 0 W/m2
01:31 28.9 °F 27.9 °F 30.26 in Calm   -999.0 mph 96 % 0.00 in 0 W/m2
01:36 28.9 °F 27.9 °F 30.26 in Calm   -999.0 mph 96 % 0.00 in 0 W/m2
01:41 28.9 °F 28.2 °F 30.26 in Calm   -999.0 mph 97 % 0.00 in 0 W/m2
01:46 28.9 °F 28.2 °F 30.26 in Calm   -999.0 mph 97 % 0.00 in 0 W/m2
01:51 28.9 °F 28.2 °F 30.26 in Calm   -999.0 mph 97 % 0.00 in 0 W/m2
01:56 29.3 °F 28.6 °F 30.27 in Calm   -999.0 mph 97 % 0.00 in 0 W/m2
02:01 29.3 °F 28.6 °F 30.27 in Calm   -999.0 mph 97 % 0.00 in 0 W/m2
02:11 28.8 °F 27.8 °F 30.27 in Calm   -999.0 mph 96 % 0.00 in 0 W/m2
02:16 28.8 °F 27.8 °F 30.27 in Calm   -999.0 mph 96 % 0.00 in 0 W/m2
02:21 28.8 °F 27.8 °F 30.27 in Calm   -999.0 mph 96 % 0.00 in 0 W/m2
02:26 28.2 °F 27.2 °F 30.26 in Calm   -999.0 mph 96 % 0.00 in 0 W/m2
02:31 28.2 °F 27.2 °F 30.26 in Calm   -999.0 mph 96 % 0.00 in 0 W/m2
02:36 28.2 °F 27.2 °F 30.26 in Calm   -999.0 mph 96 % 0.00 in 0 W/m2
02:41 28.1 °F 27.1 °F 30.26 in Calm   -999.0 mph 96 % 0.00 in 0 W/m2
02:46 28.1 °F 27.1 °F 30.26 in Calm   -999.0 mph 96 % 0.00 in 0 W/m2
02:51 28.1 °F 27.1 °F 30.26 in Calm   -999.0 mph 96 % 0.00 in 0 W/m2
02:56 27.9 °F 26.9 °F 30.26 in Calm   -999.0 mph 96 % 0.00 in 0 W/m2
03:01 27.9 °F 26.9 °F 30.26 in Calm   -999.0 mph 96 % 0.00 in 0 W/m2
03:06 27.9 °F 26.9 °F 30.26 in Calm   -999.0 mph 96 % 0.00 in 0 W/m2
03:11 27.9 °F 27.2 °F 30.26 in North 1.0 mph -999.0 mph 97 % 0.00 in 0 W/m2
03:16 27.9 °F 27.2 °F 30.26 in North 1.0 mph -999.0 mph 97 % 0.00 in 0 W/m2
03:21 27.9 °F 27.2 °F 30.26 in North 1.0 mph -999.0 mph 97 % 0.00 in 0 W/m2
03:26 28.0 °F 27.3 °F 30.26 in Calm   -999.0 mph 97 % 0.00 in 0 W/m2
03:31 28.0 °F 27.3 °F 30.26 in Calm   -999.0 mph 97 % 0.00 in 0 W/m2
03:36 28.0 °F 27.3 °F 30.26 in Calm   -999.0 mph 97 % 0.00 in 0 W/m2
03:41 27.7 °F 26.7 °F 30.25 in Calm   -999.0 mph 96 % 0.00 in 0 W/m2
03:46 27.7 °F 26.7 °F 30.25 in Calm   -999.0 mph 96 % 0.00 in 0 W/m2
03:51 27.7 °F 26.7 °F 30.25 in Calm   -999.0 mph 96 % 0.00 in 0 W/m2
03:56 27.2 °F 26.2 °F 30.26 in Calm   -999.0 mph 96 % 0.00 in 0 W/m2
04:01 27.2 °F 26.2 °F 30.26 in Calm   -999.0 mph 96 % 0.00 in 0 W/m2
04:06 27.2 °F 26.2 °F 30.26 in Calm   -999.0 mph 96 % 0.00 in 0 W/m2
04:11 26.9 °F 26.2 °F 30.26 in Calm   -999.0 mph 97 % 0.00 in 0 W/m2
04:16 26.9 °F 26.2 °F 30.26 in Calm   -999.0 mph 97 % 0.00 in 0 W/m2
04:21 26.9 °F 26.2 °F 30.26 in Calm   -999.0 mph 97 % 0.00 in 0 W/m2
04:26 27.4 °F 26.7 °F 30.26 in Calm   -999.0 mph 97 % 0.00 in 0 W/m2
04:31 27.4 °F 26.7 °F 30.26 in Calm   -999.0 mph 97 % 0.00 in 0 W/m2
04:36 27.4 °F 26.7 °F 30.26 in Calm   -999.0 mph 97 % 0.00 in 0 W/m2
04:41 27.8 °F 27.1 °F 30.26 in Calm   -999.0 mph 97 % 0.00 in 0 W/m2
04:46 27.8 °F 27.1 °F 30.26 in Calm   -999.0 mph 97 % 0.00 in 0 W/m2
04:51 27.8 °F 27.1 °F 30.26 in Calm   -999.0 mph 97 % 0.00 in 0 W/m2
04:56 28.1 °F 27.4 °F 30.26 in Calm   -999.0 mph 97 % 0.00 in 0 W/m2
05:01 28.1 °F 27.4 °F 30.26 in Calm   -999.0 mph 97 % 0.00 in 0 W/m2
05:06 28.1 °F 27.4 °F 30.26 in Calm   -999.0 mph 97 % 0.00 in 0 W/m2
05:11 28.4 °F 27.7 °F 30.25 in Calm   -999.0 mph 97 % 0.00 in 0 W/m2
05:16 28.4 °F 27.7 °F 30.25 in Calm   -999.0 mph 97 % 0.00 in 0 W/m2
05:21 28.4 °F 27.7 °F 30.25 in Calm   -999.0 mph 97 % 0.00 in 0 W/m2
05:26 28.4 °F 27.7 °F 30.25 in Calm   -999.0 mph 97 % 0.00 in 0 W/m2
05:31 28.4 °F 27.7 °F 30.25 in Calm   -999.0 mph 97 % 0.00 in 0 W/m2
05:36 28.4 °F 27.7 °F 30.25 in Calm   -999.0 mph 97 % 0.00 in 0 W/m2
05:41 28.2 °F 27.5 °F 30.25 in Calm   -999.0 mph 97 % 0.00 in 0 W/m2
05:46 28.2 °F 27.5 °F 30.25 in Calm   -999.0 mph 97 % 0.00 in 0 W/m2
05:51 28.2 °F 27.5 °F 30.25 in Calm   -999.0 mph 97 % 0.00 in 0 W/m2
05:56 28.3 °F 27.6 °F 30.25 in Calm   -999.0 mph 97 % 0.00 in 0 W/m2
06:01 28.3 °F 27.6 °F 30.25 in Calm   -999.0 mph 97 % 0.00 in 0 W/m2
06:06 28.3 °F 27.6 °F 30.25 in Calm   -999.0 mph 97 % 0.00 in 0 W/m2
06:11 28.5 °F 27.8 °F 30.25 in Calm   -999.0 mph 97 % 0.00 in 0 W/m2
06:16 28.5 °F 27.8 °F 30.25 in Calm   -999.0 mph 97 % 0.00 in 0 W/m2
06:21 28.5 °F 27.8 °F 30.25 in Calm   -999.0 mph 97 % 0.00 in 0 W/m2
06:26 28.4 °F 27.7 °F 30.25 in Calm   -999.0 mph 97 % 0.00 in 0 W/m2
06:31 28.4 °F 27.7 °F 30.25 in Calm   -999.0 mph 97 % 0.00 in 0 W/m2
06:36 28.4 °F 27.7 °F 30.25 in Calm   -999.0 mph 97 % 0.00 in 0 W/m2
06:41 28.9 °F 28.2 °F 30.26 in Calm   -999.0 mph 97 % 0.00 in 0 W/m2
06:46 28.9 °F 28.2 °F 30.26 in Calm   -999.0 mph 97 % 0.00 in 0 W/m2
06:51 28.9 °F 28.2 °F 30.26 in Calm   -999.0 mph 97 % 0.00 in 0 W/m2
06:56 28.9 °F 28.4 °F 30.26 in Calm   -999.0 mph 98 % 0.00 in 0 W/m2
07:01 28.9 °F 28.4 °F 30.26 in Calm   -999.0 mph 98 % 0.00 in 0 W/m2
07:06 28.9 °F 28.4 °F 30.26 in Calm   -999.0 mph 98 % 0.00 in 0 W/m2
07:11 30.3 °F 29.8 °F 30.25 in Calm   -999.0 mph 98 % 0.00 in 0 W/m2
07:16 30.3 °F 29.8 °F 30.25 in Calm   -999.0 mph 98 % 0.00 in 0 W/m2
07:21 30.3 °F 29.8 °F 30.25 in Calm   -999.0 mph 98 % 0.00 in 0 W/m2
07:26 31.1 °F 30.6 °F 30.26 in Calm   -999.0 mph 98 % 0.00 in 0 W/m2
07:31 31.1 °F 30.6 °F 30.26 in Calm   -999.0 mph 98 % 0.00 in 0 W/m2
07:36 31.1 °F 30.6 °F 30.26 in Calm   -999.0 mph 98 % 0.00 in 0 W/m2
07:41 31.7 °F 31.2 °F 30.26 in Calm   -999.0 mph 98 % 0.00 in 0 W/m2
07:46 31.7 °F 31.2 °F 30.26 in Calm   -999.0 mph 98 % 0.00 in 0 W/m2
07:51 31.7 °F 31.2 °F 30.26 in Calm   -999.0 mph 98 % 0.00 in 0 W/m2
07:56 31.6 °F 30.8 °F 30.26 in Calm   -999.0 mph 97 % 0.00 in 4 W/m2
08:01 31.6 °F 30.8 °F 30.26 in Calm   -999.0 mph 97 % 0.00 in 4 W/m2
08:06 31.6 °F 30.8 °F 30.26 in Calm   -999.0 mph 97 % 0.00 in 4 W/m2
08:11 31.4 °F 30.6 °F 30.26 in Calm   -999.0 mph 97 % 0.00 in 12 W/m2
08:16 31.4 °F 30.6 °F 30.26 in Calm   -999.0 mph 97 % 0.00 in 12 W/m2
08:21 31.4 °F 30.6 °F 30.26 in Calm   -999.0 mph 97 % 0.00 in 12 W/m2
08:26 32.1 °F 31.6 °F 30.27 in Calm   -999.0 mph 98 % 0.00 in 21 W/m2
08:31 32.1 °F 31.6 °F 30.27 in Calm   -999.0 mph 98 % 0.00 in 21 W/m2
08:36 32.1 °F 31.6 °F 30.27 in Calm   -999.0 mph 98 % 0.00 in 21 W/m2
08:41 32.8 °F 32.3 °F 30.27 in Calm   -999.0 mph 98 % 0.00 in 31 W/m2
08:46 32.8 °F 32.3 °F 30.27 in Calm   -999.0 mph 98 % 0.00 in 31 W/m2
08:51 32.8 °F 32.3 °F 30.27 in Calm   -999.0 mph 98 % 0.00 in 31 W/m2
08:56 33.0 °F 32.5 °F 30.27 in Calm   -999.0 mph 98 % 0.00 in 45 W/m2
09:01 33.0 °F 32.5 °F 30.27 in Calm   -999.0 mph 98 % 0.00 in 45 W/m2
09:06 33.0 °F 32.5 °F 30.27 in Calm   -999.0 mph 98 % 0.00 in 45 W/m2
09:11 33.4 °F 32.9 °F 30.27 in Calm   -999.0 mph 98 % 0.00 in 64 W/m2
09:16 33.4 °F 32.9 °F 30.27 in Calm   -999.0 mph 98 % 0.00 in 64 W/m2
09:21 33.4 °F 32.9 °F 30.27 in Calm   -999.0 mph 98 % 0.00 in 64 W/m2
09:26 34.4 °F 33.9 °F 30.28 in Calm   -999.0 mph 98 % 0.00 in 88 W/m2
09:31 34.4 °F 33.9 °F 30.28 in Calm   -999.0 mph 98 % 0.00 in 88 W/m2
09:36 34.4 °F 33.9 °F 30.28 in Calm   -999.0 mph 98 % 0.00 in 88 W/m2
09:41 35.3 °F 34.8 °F 30.28 in Calm   -999.0 mph 98 % 0.00 in 207 W/m2
09:46 35.3 °F 34.8 °F 30.28 in Calm   -999.0 mph 98 % 0.00 in 207 W/m2
09:51 35.3 °F 34.8 °F 30.28 in Calm   -999.0 mph 98 % 0.00 in 207 W/m2
09:56 36.7 °F 36.2 °F 30.28 in Calm   -999.0 mph 98 % 0.01 in 141 W/m2
10:01 36.7 °F 36.2 °F 30.28 in Calm   -999.0 mph 98 % 0.01 in 141 W/m2
10:06 36.7 °F 36.2 °F 30.28 in Calm   -999.0 mph 98 % 0.01 in 141 W/m2
10:11 37.5 °F 37.0 °F 30.28 in Calm   -999.0 mph 98 % 0.01 in 190 W/m2
10:16 37.5 °F 37.0 °F 30.28 in Calm   -999.0 mph 98 % 0.01 in 190 W/m2
10:21 37.5 °F 37.0 °F 30.28 in Calm   -999.0 mph 98 % 0.01 in 190 W/m2
10:26 38.2 °F 37.7 °F 30.28 in Calm   -999.0 mph 98 % 0.01 in 277 W/m2
10:31 38.2 °F 37.7 °F 30.28 in Calm   -999.0 mph 98 % 0.01 in 277 W/m2
10:36 38.2 °F 37.7 °F 30.28 in Calm   -999.0 mph 98 % 0.01 in 277 W/m2
10:41 39.2 °F 38.4 °F 30.29 in Calm   -999.0 mph 97 % 0.01 in 175 W/m2
10:46 39.2 °F 38.4 °F 30.29 in Calm   -999.0 mph 97 % 0.01 in 175 W/m2
10:51 39.2 °F 38.4 °F 30.29 in Calm   -999.0 mph 97 % 0.01 in 175 W/m2
10:56 40.2 °F 39.4 °F 30.29 in Calm   -999.0 mph 97 % 0.00 in 164 W/m2
11:01 40.2 °F 39.4 °F 30.29 in Calm   -999.0 mph 97 % 0.00 in 164 W/m2
11:06 40.2 °F 39.4 °F 30.29 in Calm   -999.0 mph 97 % 0.00 in 164 W/m2
11:11 41.5 °F 40.7 °F 30.29 in Calm   -999.0 mph 97 % 0.00 in 291 W/m2
11:16 41.5 °F 40.7 °F 30.29 in Calm   -999.0 mph 97 % 0.00 in 291 W/m2
11:21 41.5 °F 40.7 °F 30.29 in Calm   -999.0 mph 97 % 0.00 in 291 W/m2
11:26 42.4 °F 41.1 °F 30.29 in Calm   -999.0 mph 95 % 0.00 in 143 W/m2
11:31 42.4 °F 41.1 °F 30.29 in Calm   -999.0 mph 95 % 0.00 in 143 W/m2
11:36 42.4 °F 41.1 °F 30.29 in Calm   -999.0 mph 95 % 0.00 in 143 W/m2
11:41 42.8 °F 41.2 °F 30.28 in WSW 1.0 mph -999.0 mph 94 % 0.00 in 297 W/m2
11:46 42.8 °F 41.2 °F 30.28 in WSW 1.0 mph -999.0 mph 94 % 0.00 in 297 W/m2
11:51 42.8 °F 41.2 °F 30.28 in WSW 1.0 mph -999.0 mph 94 % 0.00 in 297 W/m2
11:56 44.0 °F 41.5 °F 30.28 in SW 1.0 mph -999.0 mph 91 % 0.00 in 323 W/m2
12:01 44.0 °F 41.5 °F 30.28 in SW 1.0 mph -999.0 mph 91 % 0.00 in 323 W/m2
12:06 44.0 °F 41.5 °F 30.28 in SW 1.0 mph -999.0 mph 91 % 0.00 in 323 W/m2
12:11 45.4 °F 42.1 °F 30.28 in SW 1.0 mph -999.0 mph 88 % 0.00 in 317 W/m2
12:16 45.4 °F 42.1 °F 30.28 in SW 1.0 mph -999.0 mph 88 % 0.00 in 317 W/m2
12:21 45.4 °F 42.1 °F 30.28 in SW 1.0 mph -999.0 mph 88 % 0.00 in 317 W/m2
12:26 46.8 °F 42.5 °F 30.28 in SW 3.0 mph -999.0 mph 85 % 0.00 in 329 W/m2
12:31 46.8 °F 42.5 °F 30.28 in SW 3.0 mph -999.0 mph 85 % 0.00 in 329 W/m2
12:36 46.8 °F 42.5 °F 30.28 in SW 3.0 mph -999.0 mph 85 % 0.00 in 329 W/m2
12:41 47.9 °F 43.0 °F 30.27 in SSW 6.0 mph -999.0 mph 83 % 0.00 in 360 W/m2
12:46 47.9 °F 43.0 °F 30.27 in SSW 6.0 mph -999.0 mph 83 % 0.00 in 360 W/m2
12:51 47.9 °F 43.0 °F 30.27 in SSW 6.0 mph -999.0 mph 83 % 0.00 in 360 W/m2
12:56 48.6 °F 43.0 °F 30.27 in SW 6.0 mph -999.0 mph 81 % 0.00 in 292 W/m2
13:01 48.6 °F 43.0 °F 30.27 in SW 6.0 mph -999.0 mph 81 % 0.00 in 292 W/m2
13:06 48.6 °F 43.0 °F 30.27 in SW 6.0 mph -999.0 mph 81 % 0.00 in 292 W/m2
13:11 48.4 °F 43.2 °F 30.26 in SW 6.0 mph -999.0 mph 82 % 0.00 in 238 W/m2
13:16 48.4 °F 43.2 °F 30.26 in SW 6.0 mph -999.0 mph 82 % 0.00 in 238 W/m2
13:21 48.4 °F 43.2 °F 30.26 in SW 6.0 mph -999.0 mph 82 % 0.00 in 238 W/m2
13:26 48.2 °F 43.0 °F 30.26 in SW 6.0 mph -999.0 mph 82 % 0.00 in 171 W/m2
13:31 48.2 °F 43.0 °F 30.26 in SW 6.0 mph -999.0 mph 82 % 0.00 in 171 W/m2
13:36 48.2 °F 43.0 °F 30.26 in SW 6.0 mph -999.0 mph 82 % 0.00 in 171 W/m2
13:41 47.8 °F 42.9 °F 30.26 in SW 6.0 mph -999.0 mph 83 % 0.00 in 161 W/m2
13:46 47.8 °F 42.9 °F 30.26 in SW 6.0 mph -999.0 mph 83 % 0.00 in 161 W/m2
13:51 47.8 °F 42.9 °F 30.26 in SW 6.0 mph -999.0 mph 83 % 0.00 in 161 W/m2
13:56 47.6 °F 42.7 °F 30.25 in SW 3.0 mph -999.0 mph 83 % 0.00 in 164 W/m2
14:01 47.6 °F 42.7 °F 30.25 in SW 3.0 mph -999.0 mph 83 % 0.00 in 164 W/m2
14:06 47.6 °F 42.7 °F 30.25 in SW 3.0 mph -999.0 mph 83 % 0.00 in 164 W/m2
14:11 47.8 °F 42.9 °F 30.25 in SSW 2.0 mph -999.0 mph 83 % 0.00 in 157 W/m2
14:16 47.8 °F 42.9 °F 30.25 in SSW 2.0 mph -999.0 mph 83 % 0.00 in 157 W/m2
14:21 47.8 °F 42.9 °F 30.25 in SSW 2.0 mph -999.0 mph 83 % 0.00 in 157 W/m2
14:26 48.1 °F 43.2 °F 30.25 in WSW 2.0 mph -999.0 mph 83 % 0.00 in 162 W/m2
14:31 48.1 °F 43.2 °F 30.25 in WSW 2.0 mph -999.0 mph 83 % 0.00 in 162 W/m2
14:36 48.1 °F 43.2 °F 30.25 in WSW 2.0 mph -999.0 mph 83 % 0.00 in 162 W/m2
14:41 48.3 °F 43.4 °F 30.25 in SW 3.0 mph -999.0 mph 83 % 0.00 in 150 W/m2
14:46 48.3 °F 43.4 °F 30.25 in SW 3.0 mph -999.0 mph 83 % 0.00 in 150 W/m2
14:51 48.3 °F 43.4 °F 30.25 in SW 3.0 mph -999.0 mph 83 % 0.00 in 150 W/m2
14:56 48.1 °F 43.2 °F 30.25 in WSW 4.0 mph -999.0 mph 83 % 0.00 in 100 W/m2
15:01 48.1 °F 43.2 °F 30.25 in WSW 4.0 mph -999.0 mph 83 % 0.00 in 100 W/m2
15:06 48.1 °F 43.2 °F 30.25 in WSW 4.0 mph -999.0 mph 83 % 0.00 in 100 W/m2
15:11 47.7 °F 43.1 °F 30.26 in WSW 4.0 mph -999.0 mph 84 % 0.00 in 84 W/m2
15:16 47.7 °F 43.1 °F 30.26 in WSW 4.0 mph -999.0 mph 84 % 0.00 in 84 W/m2
15:21 47.7 °F 43.1 °F 30.26 in WSW 4.0 mph -999.0 mph 84 % 0.00 in 84 W/m2
15:26 47.4 °F 42.8 °F 30.26 in WSW 1.0 mph -999.0 mph 84 % 0.00 in 68 W/m2
15:31 47.4 °F 42.8 °F 30.26 in WSW 1.0 mph -999.0 mph 84 % 0.00 in 68 W/m2
15:36 47.4 °F 42.8 °F 30.26 in WSW 1.0 mph -999.0 mph 84 % 0.00 in 68 W/m2
15:41 47.1 °F 42.8 °F 30.26 in SSW 1.0 mph -999.0 mph 85 % 0.00 in 44 W/m2
15:46 47.1 °F 42.8 °F 30.26 in SSW 1.0 mph -999.0 mph 85 % 0.00 in 44 W/m2
15:51 47.1 °F 42.8 °F 30.26 in SSW 1.0 mph -999.0 mph 85 % 0.00 in 44 W/m2
15:56 46.6 °F 42.6 °F 30.26 in SW 1.0 mph -999.0 mph 86 % 0.00 in 29 W/m2
16:01 46.6 °F 42.6 °F 30.26 in SW 1.0 mph -999.0 mph 86 % 0.00 in 29 W/m2
16:06 46.6 °F 42.6 °F 30.26 in SW 1.0 mph -999.0 mph 86 % 0.00 in 29 W/m2
16:11 46.1 °F 42.4 °F 30.26 in SE 1.0 mph -999.0 mph 87 % 0.00 in 17 W/m2
16:16 46.1 °F 42.4 °F 30.26 in SE 1.0 mph -999.0 mph 87 % 0.00 in 17 W/m2
16:21 46.1 °F 42.4 °F 30.26 in SE 1.0 mph -999.0 mph 87 % 0.00 in 17 W/m2
16:26 45.5 °F 42.2 °F 30.26 in SSE 1.0 mph -999.0 mph 88 % 0.00 in 8 W/m2
16:31 45.5 °F 42.2 °F 30.26 in SSE 1.0 mph -999.0 mph 88 % 0.00 in 8 W/m2
16:36 45.5 °F 42.2 °F 30.26 in SSE 1.0 mph -999.0 mph 88 % 0.00 in 8 W/m2
16:41 45.1 °F 41.8 °F 30.26 in South 2.0 mph -999.0 mph 88 % 0.00 in 0 W/m2
16:46 45.1 °F 41.8 °F 30.26 in South 2.0 mph -999.0 mph 88 % 0.00 in 0 W/m2
16:51 45.1 °F 41.8 °F 30.26 in South 2.0 mph -999.0 mph 88 % 0.00 in 0 W/m2
16:56 44.8 °F 41.5 °F 30.27 in Calm   -999.0 mph 88 % 0.00 in 0 W/m2
17:01 44.8 °F 41.5 °F 30.27 in Calm   -999.0 mph 88 % 0.00 in 0 W/m2
17:06 44.8 °F 41.5 °F 30.27 in Calm   -999.0 mph 88 % 0.00 in 0 W/m2
17:11 44.4 °F 41.4 °F 30.27 in WSW 1.0 mph -999.0 mph 89 % 0.00 in 0 W/m2
17:16 44.4 °F 41.4 °F 30.27 in WSW 1.0 mph -999.0 mph 89 % 0.00 in 0 W/m2
17:21 44.4 °F 41.4 °F 30.27 in WSW 1.0 mph -999.0 mph 89 % 0.00 in 0 W/m2
17:26 44.3 °F 41.6 °F 30.26 in SW 2.0 mph -999.0 mph 90 % 0.00 in 0 W/m2
17:31 44.3 °F 41.6 °F 30.26 in SW 2.0 mph -999.0 mph 90 % 0.00 in 0 W/m2
17:36 44.3 °F 41.6 °F 30.26 in SW 2.0 mph -999.0 mph 90 % 0.00 in 0 W/m2
17:41 43.9 °F 41.2 °F 30.27 in Calm   -999.0 mph 90 % 0.00 in 0 W/m2
17:46 43.9 °F 41.2 °F 30.27 in Calm   -999.0 mph 90 % 0.00 in 0 W/m2
17:51 43.9 °F 41.2 °F 30.27 in Calm   -999.0 mph 90 % 0.00 in 0 W/m2
17:56 43.2 °F 40.5 °F 30.27 in Calm   -999.0 mph 90 % 0.00 in 0 W/m2
18:01 43.2 °F 40.5 °F 30.27 in Calm   -999.0 mph 90 % 0.00 in 0 W/m2
18:06 43.2 °F 40.5 °F 30.27 in Calm   -999.0 mph 90 % 0.00 in 0 W/m2
18:11 42.4 °F 40.0 °F 30.27 in Calm   -999.0 mph 91 % 0.00 in 0 W/m2
18:16 42.4 °F 40.0 °F 30.27 in Calm   -999.0 mph 91 % 0.00 in 0 W/m2
18:21 42.4 °F 40.0 °F 30.27 in Calm   -999.0 mph 91 % 0.00 in 0 W/m2
18:26 41.8 °F 39.6 °F 30.27 in Calm   -999.0 mph 92 % 0.00 in 0 W/m2
18:31 41.8 °F 39.6 °F 30.27 in Calm   -999.0 mph 92 % 0.00 in 0 W/m2
18:36 41.8 °F 39.6 °F 30.27 in Calm   -999.0 mph 92 % 0.00 in 0 W/m2
18:41 41.2 °F 39.3 °F 30.27 in ESE 1.0 mph -999.0 mph 93 % 0.00 in 0 W/m2
18:46 41.2 °F 39.3 °F 30.27 in ESE 1.0 mph -999.0 mph 93 % 0.00 in 0 W/m2
18:51 41.2 °F 39.3 °F 30.27 in ESE 1.0 mph -999.0 mph 93 % 0.00 in 0 W/m2
18:56 40.9 °F 39.0 °F 30.27 in Calm   -999.0 mph 93 % 0.00 in 0 W/m2
19:01 40.9 °F 39.0 °F 30.27 in Calm   -999.0 mph 93 % 0.00 in 0 W/m2
19:06 40.9 °F 39.0 °F 30.27 in Calm   -999.0 mph 93 % 0.00 in 0 W/m2
19:11 40.4 °F 38.5 °F 30.27 in Calm   -999.0 mph 93 % 0.00 in 0 W/m2
19:16 40.4 °F 38.5 °F 30.27 in Calm   -999.0 mph 93 % 0.00 in 0 W/m2
19:21 40.4 °F 38.5 °F 30.27 in Calm   -999.0 mph 93 % 0.00 in 0 W/m2
19:26 40.4 °F 38.8 °F 30.28 in Calm   -999.0 mph 94 % 0.00 in 0 W/m2
19:31 40.4 °F 38.8 °F 30.28 in Calm   -999.0 mph 94 % 0.00 in 0 W/m2
19:36 40.4 °F 38.8 °F 30.28 in Calm   -999.0 mph 94 % 0.00 in 0 W/m2
19:41 40.4 °F 38.8 °F 30.28 in Calm   -999.0 mph 94 % 0.00 in 0 W/m2
19:46 40.4 °F 38.8 °F 30.28 in Calm   -999.0 mph 94 % 0.00 in 0 W/m2
19:51 40.4 °F 38.8 °F 30.28 in Calm   -999.0 mph 94 % 0.00 in 0 W/m2
19:56 40.0 °F 38.4 °F 30.28 in Calm   -999.0 mph 94 % 0.00 in 0 W/m2
20:01 40.0 °F 38.4 °F 30.28 in Calm   -999.0 mph 94 % 0.00 in 0 W/m2
20:06 40.0 °F 38.4 °F 30.28 in Calm   -999.0 mph 94 % 0.00 in 0 W/m2
20:11 39.4 °F 38.1 °F 30.27 in Calm   -999.0 mph 95 % 0.00 in 0 W/m2
20:16 39.4 °F 38.1 °F 30.27 in Calm   -999.0 mph 95 % 0.00 in 0 W/m2
20:21 39.4 °F 38.1 °F 30.27 in Calm   -999.0 mph 95 % 0.00 in 0 W/m2
20:26 39.6 °F 38.3 °F 30.27 in Calm   -999.0 mph 95 % 0.00 in 0 W/m2
20:31 39.6 °F 38.3 °F 30.27 in Calm   -999.0 mph 95 % 0.00 in 0 W/m2
20:36 39.6 °F 38.3 °F 30.27 in Calm   -999.0 mph 95 % 0.00 in 0 W/m2
20:41 39.9 °F 38.6 °F 30.27 in Calm   -999.0 mph 95 % 0.00 in 0 W/m2
20:46 39.9 °F 38.6 °F 30.27 in Calm   -999.0 mph 95 % 0.00 in 0 W/m2
20:51 39.9 °F 38.6 °F 30.27 in Calm   -999.0 mph 95 % 0.00 in 0 W/m2
20:56 39.8 °F 38.5 °F 30.28 in SE 1.0 mph -999.0 mph 95 % 0.00 in 0 W/m2
21:01 39.8 °F 38.5 °F 30.28 in SE 1.0 mph -999.0 mph 95 % 0.00 in 0 W/m2
21:06 39.8 °F 38.5 °F 30.28 in SE 1.0 mph -999.0 mph 95 % 0.00 in 0 W/m2
21:11 39.9 °F 38.6 °F 30.27 in SW 1.0 mph -999.0 mph 95 % 0.00 in 0 W/m2
21:16 39.9 °F 38.6 °F 30.27 in SW 1.0 mph -999.0 mph 95 % 0.00 in 0 W/m2
21:21 39.9 °F 38.6 °F 30.27 in SW 1.0 mph -999.0 mph 95 % 0.00 in 0 W/m2
21:26 39.9 °F 38.6 °F 30.27 in Calm   -999.0 mph 95 % 0.00 in 0 W/m2
21:31 39.9 °F 38.6 °F 30.27 in Calm   -999.0 mph 95 % 0.00 in 0 W/m2
21:36 39.9 °F 38.6 °F 30.27 in Calm   -999.0 mph 95 % 0.00 in 0 W/m2
21:41 39.5 °F 38.2 °F 30.27 in Calm   -999.0 mph 95 % 0.00 in 0 W/m2
21:46 39.5 °F 38.2 °F 30.27 in Calm   -999.0 mph 95 % 0.00 in 0 W/m2
21:51 39.5 °F 38.2 °F 30.27 in Calm   -999.0 mph 95 % 0.00 in 0 W/m2
21:56 39.3 °F 38.3 °F 30.27 in Calm   -999.0 mph 96 % 0.00 in 0 W/m2
22:01 39.3 °F 38.3 °F 30.27 in Calm   -999.0 mph 96 % 0.00 in 0 W/m2
22:06 39.3 °F 38.3 °F 30.27 in Calm   -999.0 mph 96 % 0.00 in 0 W/m2
22:11 39.5 °F 38.5 °F 30.27 in NNE 1.0 mph -999.0 mph 96 % 0.00 in 0 W/m2
22:16 39.5 °F 38.5 °F 30.27 in NNE 1.0 mph -999.0 mph 96 % 0.00 in 0 W/m2
22:21 39.5 °F 38.5 °F 30.27 in NNE 1.0 mph -999.0 mph 96 % 0.00 in 0 W/m2
22:26 39.8 °F 38.8 °F 30.27 in ESE 2.0 mph -999.0 mph 96 % 0.00 in 0 W/m2
22:31 39.8 °F 38.8 °F 30.27 in ESE 2.0 mph -999.0 mph 96 % 0.00 in 0 W/m2
22:36 39.8 °F 38.8 °F 30.27 in ESE 2.0 mph -999.0 mph 96 % 0.00 in 0 W/m2
22:41 40.5 °F 39.4 °F 30.27 in SE 2.0 mph -999.0 mph 96 % 0.00 in 0 W/m2
22:46 40.5 °F 39.4 °F 30.27 in SE 2.0 mph -999.0 mph 96 % 0.00 in 0 W/m2
22:51 40.5 °F 39.4 °F 30.27 in SE 2.0 mph -999.0 mph 96 % 0.00 in 0 W/m2
22:56 40.5 °F 39.2 °F 30.27 in Calm   -999.0 mph 95 % 0.00 in 0 W/m2
23:01 40.5 °F 39.2 °F 30.27 in Calm   -999.0 mph 95 % 0.00 in 0 W/m2
23:06 40.5 °F 39.2 °F 30.27 in Calm   -999.0 mph 95 % 0.00 in 0 W/m2
23:11 40.2 °F 39.2 °F 30.27 in SSE 1.0 mph -999.0 mph 96 % 0.00 in 0 W/m2
23:16 40.2 °F 39.2 °F 30.27 in SSE 1.0 mph -999.0 mph 96 % 0.00 in 0 W/m2
23:21 40.2 °F 39.2 °F 30.27 in SSE 1.0 mph -999.0 mph 96 % 0.00 in 0 W/m2
23:26 40.5 °F 39.4 °F 30.27 in South 4.0 mph -999.0 mph 96 % 0.00 in 0 W/m2
23:31 40.5 °F 39.4 °F 30.27 in South 4.0 mph -999.0 mph 96 % 0.00 in 0 W/m2
23:36 40.5 °F 39.4 °F 30.27 in South 4.0 mph -999.0 mph 96 % 0.00 in 0 W/m2
23:41 41.0 °F 39.7 °F 30.27 in South 3.0 mph -999.0 mph 95 % 0.00 in 0 W/m2
23:46 41.0 °F 39.7 °F 30.27 in South 3.0 mph -999.0 mph 95 % 0.00 in 0 W/m2
23:51 41.0 °F 39.7 °F 30.27 in South 3.0 mph -999.0 mph 95 % 0.00 in 0 W/m2
23:56 41.0 °F 39.7 °F 30.26 in SSE 2.0 mph -999.0 mph 95 % 0.00 in 0 W/m2
Delerius-Weather
Compliments of Weather Underground - 2.25 mb

Data updates at regular intervals.